Time;durP1;ratioP1;P1;durP2;ratioP2;P2;SDS_P1;SDS_P2;PMS_P1;PMS_P2;Temp;Humidity;BMP_temperature;BMP_pressure;BME280_temperature;BME280_humidity;BME280_pressure;Samples;Min_cycle;Max_cycle;Signal;HPM_P1;HPM_P2
2022/06/26 00:01:19;;;;;;;10.48;5.57;;;;;;;-148.88;76.42;74548.53;5015325;28;20022;-87
2022/06/26 00:03:44;;;;;;;7.57;5.68;;;;;;;-148.88;76.20;74554.63;5014482;28;20022;-87
2022/06/26 00:06:10;;;;;;;7.07;5.00;;;;;;;-148.88;76.59;74558.69;5015147;28;20097;-86
2022/06/26 00:08:36;;;;;;;6.10;5.22;;;;;;;-148.88;76.02;74560.72;5015044;28;20404;-86
2022/06/26 00:11:01;;;;;;;7.70;5.13;;;;;;;-148.88;76.87;74570.88;5014945;28;20411;-87
2022/06/26 00:13:26;;;;;;;5.55;4.82;;;;;;;-148.88;77.19;74576.97;5015181;28;20032;-87
2022/06/26 00:15:52;;;;;;;6.65;5.25;;;;;;;-148.88;77.04;74583.06;5014798;28;20392;-86
2022/06/26 00:18:17;;;;;;;5.53;4.88;;;;;;;-148.88;78.08;74583.06;5013795;28;20026;-87
2022/06/26 00:20:43;;;;;;;6.63;5.28;;;;;;;-148.88;78.73;74591.19;5015386;28;20032;-86
2022/06/26 00:23:08;;;;;;;6.43;5.13;;;;;;;-148.88;79.08;74599.28;5015358;28;20034;-86
2022/06/26 00:25:34;;;;;;;8.48;5.38;;;;;;;-148.88;79.07;74593.22;5015321;28;20113;-86
2022/06/26 00:28:00;;;;;;;7.10;5.10;;;;;;;-148.88;78.70;74607.41;5015998;28;20032;-86
2022/06/26 00:30:25;;;;;;;7.13;5.05;;;;;;;-148.88;79.03;74609.44;5015270;28;20018;-86
2022/06/26 00:32:50;;;;;;;6.53;5.03;;;;;;;-148.88;78.68;74611.47;5015458;28;20033;-86
2022/06/26 00:35:16;;;;;;;7.22;5.50;;;;;;;-148.88;78.63;74611.47;5015526;28;20117;-87
2022/06/26 00:37:41;;;;;;;6.82;5.53;;;;;;;-148.88;78.55;74617.56;5015145;28;20030;-86
2022/06/26 00:40:08;;;;;;;7.63;5.00;;;;;;;-148.88;79.02;74621.63;5030879;28;20037;-87
2022/06/26 00:42:33;;;;;;;8.30;4.85;;;;;;;-148.88;79.21;74631.78;5030223;28;20026;-86
2022/06/26 00:45:19;;;;;;;7.65;4.95;;;;;;;-148.88;80.55;74633.81;5013718;28;20022;-86
2022/06/26 00:47:45;;;;;;;5.93;5.22;;;;;;;-148.88;81.11;74635.84;5015325;28;20061;-86
2022/06/26 00:50:37;;;;;;;5.97;4.75;;;;;;;-148.88;81.65;74648.03;5014477;28;20026;-86
2022/06/26 00:53:18;;;;;;;6.88;5.57;;;;;;;-148.88;83.04;74662.25;5012307;28;20087;-86
2022/06/26 00:56:04;;;;;;;9.23;6.10;;;;;;;-148.88;83.65;74666.31;5014089;28;20041;-87
2022/06/26 00:58:29;;;;;;;7.47;5.80;;;;;;;-148.88;84.45;74674.44;5013417;28;20021;-87
2022/06/26 01:00:57;;;;;;;7.50;5.70;;;;;;;-148.88;85.08;74678.50;5013276;28;20021;-86
2022/06/26 01:03:23;;;;;;;7.50;5.55;;;;;;;-148.88;85.48;74688.66;5013206;28;20053;-86
2022/06/26 01:05:48;;;;;;;10.10;6.35;;;;;;;-148.88;87.10;74692.72;5014541;28;20100;-86
2022/06/26 01:08:19;;;;;;;8.05;6.70;;;;;;;-148.88;86.78;74696.78;5014944;28;20025;-86
2022/06/26 01:10:48;;;;;;;7.63;6.32;;;;;;;-148.88;87.01;74696.78;5014177;28;20029;-86
2022/06/26 01:13:23;;;;;;;8.02;6.45;;;;;;;-148.88;86.44;74704.88;5013455;28;20057;-86
2022/06/26 01:15:54;;;;;;;7.10;6.28;;;;;;;-148.88;86.48;74706.91;5013550;28;20022;-86
2022/06/26 01:18:28;;;;;;;6.55;5.85;;;;;;;-148.88;86.53;74706.91;5014614;28;20412;-86
2022/06/26 01:21:04;;;;;;;6.30;5.20;;;;;;;-148.88;86.33;74713.00;5014910;28;20029;-87
2022/06/26 01:23:39;;;;;;;7.20;5.30;;;;;;;-148.88;86.36;74713.00;5014420;28;20041;-86
2022/06/26 01:26:07;;;;;;;6.45;5.43;;;;;;;-148.88;86.18;74725.19;5013962;28;20546;-86
2022/06/26 01:28:32;;;;;;;8.20;6.03;;;;;;;-148.88;86.52;74733.31;5036545;23;20056;-84
2022/06/26 01:30:58;;;;;;;6.70;6.00;;;;;;;-148.88;86.89;74739.41;4998857;28;20018;-85
2022/06/26 01:33:23;;;;;;;7.97;5.85;;;;;;;-148.88;86.61;74737.38;5000008;28;20549;-85
2022/06/26 01:35:48;;;;;;;7.65;6.00;;;;;;;-148.88;86.28;74743.47;4998891;28;20033;-85
2022/06/26 01:41:36;;;;;;;7.75;5.75;;;;;;;-148.88;86.18;74749.56;4999761;28;20437;-85
2022/06/26 01:44:01;;;;;;;8.00;5.53;;;;;;;-148.88;85.82;74747.53;4998736;28;20022;-85
2022/06/26 01:46:27;;;;;;;7.93;6.10;;;;;;;-148.88;86.24;74753.63;4994997;28;20031;-83
2022/06/26 01:48:52;;;;;;;8.27;5.32;;;;;;;-148.88;85.66;74761.75;4995028;28;20054;-84
2022/06/26 01:51:17;;;;;;;8.23;4.95;;;;;;;-148.88;85.83;74757.69;4997549;28;20034;-85
2022/06/26 01:53:43;;;;;;;5.72;5.07;;;;;;;-148.88;85.22;74761.75;4996897;28;20026;-84
2022/06/26 01:56:09;;;;;;;7.60;5.20;;;;;;;-148.88;85.03;74765.81;4996690;28;20084;-85
2022/06/26 01:58:35;;;;;;;6.35;4.80;;;;;;;-148.88;84.91;74763.78;4998970;28;20561;-82
2022/06/26 02:01:01;;;;;;;6.13;5.53;;;;;;;-148.88;84.68;74767.84;4998283;28;20026;-85
2022/06/26 02:03:27;;;;;;;8.73;5.45;;;;;;;-148.88;84.58;74769.88;4997650;28;20030;-85
2022/06/26 02:05:52;;;;;;;7.53;5.18;;;;;;;-148.88;84.68;74767.84;4998347;28;20025;-85
2022/06/26 02:08:18;;;;;;;7.32;5.22;;;;;;;-148.88;84.80;74771.91;4999472;28;20031;-85
2022/06/26 02:13:37;;;;;;;6.40;5.18;;;;;;;-148.88;84.09;74769.88;4999002;28;20053;-85
2022/06/26 02:16:19;;;;;;;6.10;5.32;;;;;;;-148.88;83.77;74765.81;4996964;28;20490;-85
2022/06/26 02:18:47;;;;;;;5.88;5.00;;;;;;;-148.88;83.93;74763.78;4998896;28;20023;-85
2022/06/26 02:21:17;;;;;;;7.25;4.88;;;;;;;-148.88;84.21;74755.66;4997757;28;20022;-85
2022/06/26 02:23:48;;;;;;;5.60;4.97;;;;;;;-148.88;83.99;74753.63;4997899;28;20018;-85
2022/06/26 02:26:14;;;;;;;5.63;4.57;;;;;;;-148.88;83.60;74753.63;4996409;28;20014;-85
2022/06/26 02:28:41;;;;;;;6.15;4.97;;;;;;;-148.88;83.52;74757.69;4997473;28;20050;-85
2022/06/26 02:31:07;;;;;;;6.45;5.13;;;;;;;-148.88;83.53;74757.69;4997877;28;20036;-85
2022/06/26 02:33:34;;;;;;;8.52;5.55;;;;;;;-148.88;83.25;74757.69;4999780;28;20493;-85
2022/06/26 02:35:59;;;;;;;6.93;5.22;;;;;;;-148.88;83.02;74757.69;4998549;28;20150;-85
2022/06/26 02:38:25;;;;;;;6.25;5.50;;;;;;;-148.88;83.73;74765.81;4998849;28;20058;-85
2022/06/26 02:40:51;;;;;;;7.88;5.57;;;;;;;-148.88;83.43;74769.88;5000260;28;20112;-85
2022/06/26 02:43:18;;;;;;;6.38;5.47;;;;;;;-148.88;83.55;74765.81;5000126;28;20097;-85
2022/06/26 02:45:44;;;;;;;7.68;5.15;;;;;;;-148.88;83.34;74769.88;4998219;28;20432;-84
2022/06/26 02:48:10;;;;;;;11.82;6.13;;;;;;;-148.88;83.69;74773.94;4998301;28;20089;-85
2022/06/26 02:50:35;;;;;;;7.65;5.00;;;;;;;-148.88;82.25;74773.94;4999453;28;20110;-85
2022/06/26 02:53:00;;;;;;;6.97;4.80;;;;;;;-148.88;80.69;74786.13;4997946;28;20495;-86
2022/06/26 02:55:26;;;;;;;6.47;4.70;;;;;;;-148.88;81.41;74798.31;4996746;28;20026;-85
2022/06/26 02:57:51;;;;;;;6.03;4.80;;;;;;;-148.88;81.69;74798.31;4997555;28;20026;-84
2022/06/26 03:00:16;;;;;;;8.50;5.53;;;;;;;-148.88;82.87;74818.59;4997509;28;20053;-85
2022/06/26 03:02:42;;;;;;;8.45;5.35;;;;;;;-148.88;82.70;74806.44;4999019;28;20034;-84
2022/06/26 03:05:07;;;;;;;12.02;5.78;;;;;;;-148.88;82.68;74798.31;4993741;28;20026;-84
2022/06/26 03:07:33;;;;;;;6.18;5.05;;;;;;;-148.88;82.47;74800.34;4995491;28;20026;-85
2022/06/26 03:09:58;;;;;;;6.40;5.72;;;;;;;-148.88;82.57;74796.28;4994447;28;20038;-85
2022/06/26 03:12:23;;;;;;;9.73;5.97;;;;;;;-148.88;83.35;74798.31;4995360;28;20045;-85
2022/06/26 03:14:49;;;;;;;7.70;5.75;;;;;;;-148.88;83.48;74800.34;4995518;28;20116;-85
2022/06/26 03:17:15;;;;;;;7.93;6.13;;;;;;;-148.88;83.25;74794.25;4994845;28;20030;-85
2022/06/26 03:19:41;;;;;;;9.80;5.75;;;;;;;-148.88;83.62;74798.31;4999934;28;20482;-83
2022/06/26 03:22:06;;;;;;;10.80;6.05;;;;;;;-148.88;84.51;74806.44;5000905;28;20029;-84
2022/06/26 03:24:32;;;;;;;8.35;5.93;;;;;;;-148.88;84.75;74794.25;5001055;28;20026;-85
2022/06/26 03:26:57;;;;;;;9.38;6.20;;;;;;;-148.88;84.83;74798.31;5000797;28;20396;-84
2022/06/26 03:29:22;;;;;;;8.05;6.13;;;;;;;-148.88;85.61;74802.38;4999567;28;20037;-84
2022/06/26 03:31:48;;;;;;;7.70;5.53;;;;;;;-148.88;85.83;74812.53;5001099;28;20038;-83
2022/06/26 03:34:13;;;;;;;8.30;5.72;;;;;;;-148.88;86.36;74822.66;4999739;28;20037;-84
2022/06/26 03:36:38;;;;;;;8.05;5.63;;;;;;;-148.88;86.30;74826.72;4999887;28;20448;-84
2022/06/26 03:39:04;;;;;;;8.27;5.55;;;;;;;-148.88;86.30;74824.69;4999835;28;20037;-84
2022/06/26 03:41:29;;;;;;;8.38;5.72;;;;;;;-148.88;86.13;74822.66;5000726;28;20030;-85
2022/06/26 03:43:55;;;;;;;8.80;5.55;;;;;;;-148.88;85.96;74834.84;4996369;28;20023;-83
2022/06/26 03:46:20;;;;;;;9.02;5.40;;;;;;;-148.88;86.33;74834.84;4995764;28;20018;-85
2022/06/26 03:48:46;;;;;;;11.52;5.97;;;;;;;-148.88;86.39;74830.78;4996576;28;20026;-85
2022/06/26 03:51:11;;;;;;;7.15;5.00;;;;;;;-148.88;86.54;74824.69;4995579;28;20397;-85
2022/06/26 03:53:37;;;;;;;7.47;5.32;;;;;;;-148.88;86.53;74812.53;4997913;28;20536;-85
2022/06/26 03:56:03;;;;;;;7.38;5.13;;;;;;;-148.88;85.74;74806.44;4996678;28;20501;-85
2022/06/26 03:58:28;;;;;;;8.57;5.80;;;;;;;-148.88;85.64;74808.47;4995449;28;20026;-86
2022/06/26 04:00:54;;;;;;;5.53;4.90;;;;;;;-148.88;85.78;74808.47;4996069;28;20030;-85
2022/06/26 04:03:20;;;;;;;6.72;5.18;;;;;;;-148.88;85.71;74804.41;4996640;28;20029;-84
2022/06/26 04:05:45;;;;;;;8.43;5.03;;;;;;;-148.88;85.36;74798.31;4998087;28;20101;-86
2022/06/26 04:08:10;;;;;;;8.75;5.20;;;;;;;-148.88;84.95;74788.16;4997728;28;20370;-85
2022/06/26 04:10:36;;;;;;;6.03;5.13;;;;;;;-148.88;84.61;74780.03;4996282;28;20492;-84
2022/06/26 04:13:04;;;;;;;7.30;4.47;;;;;;;-148.88;84.31;74769.88;4997049;28;20370;-86
2022/06/26 04:15:31;;;;;;;7.97;5.40;;;;;;;-148.88;83.97;74759.72;4995349;28;20060;-86
2022/06/26 04:17:57;;;;;;;7.72;5.15;;;;;;;-148.88;84.19;74763.78;4996910;28;20520;-84
2022/06/26 04:20:24;;;;;;;8.55;4.93;;;;;;;-148.88;84.92;74769.88;4995012;28;20031;-86
2022/06/26 04:23:03;;;;;;;10.90;5.18;;;;;;;-148.88;85.45;74761.75;4996712;28;20034;-85
2022/06/26 04:25:31;;;;;;;8.85;4.72;;;;;;;-148.88;85.49;74757.69;4995008;28;20500;-86
2022/06/26 04:27:57;;;;;;;7.28;5.10;;;;;;;-148.88;85.55;74749.56;4994373;28;20034;-86
2022/06/26 04:30:26;;;;;;;6.55;4.38;;;;;;;-148.88;85.87;74745.50;4994884;28;20049;-87
2022/06/26 04:32:51;;;;;;;6.47;4.97;;;;;;;-148.88;86.18;74741.44;4998216;28;20120;-85
2022/06/26 04:35:17;;;;;;;8.45;5.10;;;;;;;-148.88;86.06;74739.41;4999291;28;20465;-89
2022/06/26 04:37:43;;;;;;;11.00;5.15;;;;;;;-148.88;86.43;74729.25;4995564;28;20030;-90
2022/06/26 04:40:11;;;;;;;9.85;4.97;;;;;;;-148.88;86.01;74727.22;4995426;28;20026;-87
2022/06/26 04:42:36;;;;;;;6.78;5.13;;;;;;;-148.88;85.57;74708.94;4995900;28;20030;-85
2022/06/26 04:45:03;;;;;;;8.43;5.47;;;;;;;-148.88;84.55;74708.94;4994557;28;20025;-88
2022/06/26 04:47:28;;;;;;;12.00;5.85;;;;;;;-148.88;83.06;74700.84;4994997;28;20477;-86
2022/06/26 04:49:53;;;;;;;10.80;5.72;;;;;;;-148.88;83.56;74704.88;4996708;28;20081;-85
2022/06/26 04:52:19;;;;;;;9.80;5.75;;;;;;;-148.88;83.45;74713.00;4996381;28;20077;-85
2022/06/26 04:54:44;;;;;;;11.05;6.78;;;;;;;-148.88;84.41;74713.00;4996521;28;20028;-85
2022/06/26 04:57:10;;;;;;;12.57;6.20;;;;;;;-148.88;85.22;74721.13;4994490;28;20481;-86
2022/06/26 04:59:36;;;;;;;13.98;7.25;;;;;;;-148.88;84.26;74721.13;4995589;28;20034;-85
2022/06/26 05:02:03;;;;;;;11.80;7.10;;;;;;;-148.88;83.38;74723.16;4995942;28;20049;-85
2022/06/26 05:04:28;;;;;;;10.57;7.68;;;;;;;-148.88;83.09;74729.25;4994111;28;20126;-86
2022/06/26 05:06:53;;;;;;;12.40;7.00;;;;;;;-148.88;83.75;74733.31;4994474;28;20058;-86
2022/06/26 05:09:19;;;;;;;9.98;7.35;;;;;;;-148.88;83.12;74721.13;4996227;28;20045;-88
2022/06/26 05:11:45;;;;;;;9.68;7.70;;;;;;;-148.88;82.66;74725.19;4995018;28;20479;-85
2022/06/26 05:14:10;;;;;;;11.23;8.40;;;;;;;-148.88;83.19;74733.31;4995436;28;20141;-84
2022/06/26 05:16:35;;;;;;;11.00;7.68;;;;;;;-148.88;83.58;74731.28;4994945;28;20121;-85
2022/06/26 05:19:02;;;;;;;11.25;8.38;;;;;;;-148.88;82.89;74729.25;4996108;28;20025;-85
2022/06/26 05:21:27;;;;;;;9.02;7.97;;;;;;;-148.88;83.73;74745.50;4995627;28;20029;-83
2022/06/26 05:23:53;;;;;;;11.38;8.85;;;;;;;-148.88;84.41;74743.47;4997248;28;20121;-83
2022/06/26 05:26:18;;;;;;;11.45;8.55;;;;;;;-148.88;84.27;74753.63;4997347;28;20166;-84
2022/06/26 05:32:05;;;;;;;10.73;8.30;;;;;;;-148.88;85.01;74753.63;4997512;28;20116;-83
2022/06/26 05:34:30;;;;;;;13.55;9.30;;;;;;;-148.88;84.21;74753.63;4996731;28;20030;-83
2022/06/26 05:36:55;;;;;;;12.30;8.50;;;;;;;-148.88;84.25;74757.69;4996304;28;20033;-84
2022/06/26 05:39:20;;;;;;;11.68;9.13;;;;;;;-148.88;84.53;74769.88;4997023;28;20022;-83
2022/06/26 05:41:46;;;;;;;12.10;8.88;;;;;;;-148.88;84.72;74773.94;4996890;28;20022;-83
2022/06/26 05:44:11;;;;;;;11.40;8.93;;;;;;;-148.88;84.73;74778.00;4995081;28;20081;-84
2022/06/26 05:46:37;;;;;;;13.55;8.93;;;;;;;-148.88;84.71;74771.91;4997253;28;20097;-86
2022/06/26 05:49:02;;;;;;;9.73;8.10;;;;;;;-148.88;84.70;74765.81;4996850;28;20101;-85
2022/06/26 05:51:28;;;;;;;11.05;7.88;;;;;;;-148.88;85.18;74769.88;4997917;28;20061;-84
2022/06/26 05:53:53;;;;;;;10.50;8.00;;;;;;;-148.88;85.31;74769.88;4997706;28;20477;-86
2022/06/26 05:56:18;;;;;;;10.82;7.90;;;;;;;-148.88;84.93;74767.84;4994240;28;20125;-86
2022/06/26 05:58:43;;;;;;;11.43;7.97;;;;;;;-148.88;86.22;74786.13;4995737;28;20018;-85
2022/06/26 06:01:09;;;;;;;9.75;7.88;;;;;;;-148.88;86.49;74778.00;4995459;28;20062;-86
2022/06/26 06:03:34;;;;;;;8.65;7.43;;;;;;;-148.88;86.91;74773.94;4994864;28;20037;-84
2022/06/26 06:06:00;;;;;;;15.35;8.07;;;;;;;-148.88;85.74;74749.56;4993153;28;20075;-84
2022/06/26 06:08:25;;;;;;;9.38;7.93;;;;;;;-148.88;87.13;74767.84;4994469;28;20030;-85
2022/06/26 06:10:51;;;;;;;11.63;8.00;;;;;;;-148.88;86.94;74778.00;4993055;28;20022;-86
2022/06/26 06:13:16;;;;;;;11.10;7.85;;;;;;;-148.88;86.28;74769.88;4993055;28;20031;-86
2022/06/26 06:15:41;;;;;;;9.80;8.40;;;;;;;-148.88;86.71;74794.25;4994279;28;20027;-86
2022/06/26 06:18:07;;;;;;;10.10;8.52;;;;;;;-148.88;87.37;74802.38;4994669;28;20437;-86
2022/06/26 06:20:32;;;;;;;9.77;7.78;;;;;;;-148.88;86.83;74792.22;4993642;28;20018;-87
2022/06/26 06:23:05;;;;;;;9.75;7.63;;;;;;;-148.88;86.67;74796.28;4993378;28;20032;-87
2022/06/26 06:25:32;;;;;;;10.93;8.05;;;;;;;-148.88;86.77;74800.34;4994386;28;20030;-86
2022/06/26 06:27:57;;;;;;;10.32;8.00;;;;;;;-148.88;86.13;74788.16;4994725;28;20479;-85
2022/06/26 06:30:22;;;;;;;10.85;7.78;;;;;;;-148.88;86.30;74790.19;4996065;28;20512;-86
2022/06/26 06:32:48;;;;;;;10.55;7.60;;;;;;;-148.88;86.79;74798.31;4997607;28;20113;-85
2022/06/26 06:35:14;;;;;;;9.80;7.32;;;;;;;-148.88;86.64;74786.13;4996923;28;20033;-85
2022/06/26 06:37:41;;;;;;;9.18;7.78;;;;;;;-148.88;84.89;74788.16;4995417;28;20030;-84
2022/06/26 06:40:07;;;;;;;9.35;7.03;;;;;;;-148.88;84.85;74790.19;4994151;28;20416;-84
2022/06/26 06:42:32;;;;;;;10.88;6.95;;;;;;;-148.88;84.56;74794.25;4993226;28;20029;-85
2022/06/26 06:44:57;;;;;;;10.50;6.82;;;;;;;-148.88;84.62;74782.06;4993225;28;20022;-85
2022/06/26 06:47:22;;;;;;;9.98;5.53;;;;;;;-148.88;83.71;74757.69;4992881;28;20033;-85
2022/06/26 06:49:48;;;;;;;7.40;5.70;;;;;;;-148.88;82.81;74749.56;4994370;28;20411;-85
2022/06/26 06:52:13;;;;;;;7.43;4.90;;;;;;;-148.88;82.22;74737.38;4996162;28;20028;-87
2022/06/26 06:54:38;;;;;;;8.13;5.70;;;;;;;-148.88;81.09;74745.50;4997191;28;20026;-85
2022/06/26 06:57:04;;;;;;;6.05;5.15;;;;;;;-148.88;80.96;74747.53;4997079;28;20080;-86
2022/06/26 06:59:29;;;;;;;9.98;5.32;;;;;;;-148.88;81.27;74745.50;4997627;28;20539;-85
2022/06/26 07:01:54;;;;;;;6.60;4.93;;;;;;;-148.88;81.44;74761.75;4998170;28;20049;-85
2022/06/26 07:04:20;;;;;;;9.63;4.25;;;;;;;-148.88;82.01;74761.75;4997207;28;20030;-85
2022/06/26 07:06:47;;;;;;;5.93;4.38;;;;;;;-148.88;80.39;74769.88;4998539;28;20023;-86
2022/06/26 07:09:12;;;;;;;5.50;4.18;;;;;;;-148.88;81.08;74763.78;4998071;28;20026;-85
2022/06/26 07:11:38;;;;;;;5.78;5.13;;;;;;;-148.88;79.85;74747.53;4998016;28;20030;-85
2022/06/26 07:14:03;;;;;;;6.85;4.90;;;;;;;-148.88;80.05;74733.31;4997434;28;20030;-84
2022/06/26 07:16:29;;;;;;;5.00;4.40;;;;;;;-148.88;80.67;74725.19;4998130;28;20053;-89
2022/06/26 07:18:54;;;;;;;6.60;4.05;;;;;;;-148.88;78.54;74731.28;4995998;28;20038;-87
2022/06/26 07:21:20;;;;;;;5.93;4.70;;;;;;;-148.88;78.65;74739.41;4996179;28;20485;-87
2022/06/26 07:23:45;;;;;;;5.82;4.28;;;;;;;-148.88;78.34;74731.28;4997436;28;20096;-85
2022/06/26 07:26:11;;;;;;;5.47;3.45;;;;;;;-148.88;77.61;74729.25;4997266;28;20485;-87
2022/06/26 07:28:36;;;;;;;5.95;4.13;;;;;;;-148.88;77.24;74717.06;4999214;23;20050;-73
2022/06/26 07:31:01;;;;;;;7.45;5.00;;;;;;;-148.88;78.33;74713.00;4977337;28;20436;-73
2022/06/26 07:36:12;;;;;;;5.47;3.92;;;;;;;-148.88;77.24;74698.78;4977994;28;20029;-73
2022/06/26 07:38:37;;;;;;;6.13;3.97;;;;;;;-148.88;77.23;74700.84;4978563;28;20031;-73
2022/06/26 07:41:03;;;;;;;5.03;4.18;;;;;;;-148.88;77.93;74686.63;4977323;28;20038;-72
2022/06/26 07:43:29;;;;;;;5.85;4.10;;;;;;;-148.88;77.77;74656.16;4977528;28;20018;-73
2022/06/26 07:45:56;;;;;;;6.78;4.07;;;;;;;-148.88;76.75;74668.34;4975902;28;20027;-73
2022/06/26 07:48:21;;;;;;;4.72;3.65;;;;;;;-148.88;75.19;74648.03;4975757;28;20031;-73
2022/06/26 07:50:46;;;;;;;4.63;3.28;;;;;;;-148.88;75.64;74646.00;4975739;28;20146;-73
2022/06/26 07:53:12;;;;;;;5.25;4.38;;;;;;;-148.88;74.73;74617.56;4975684;28;20019;-73
2022/06/26 07:55:37;;;;;;;5.07;3.15;;;;;;;-148.88;75.93;74611.47;4976828;28;20027;-73
2022/06/26 07:58:02;;;;;;;5.53;3.65;;;;;;;-148.88;74.16;74605.38;4976776;28;20019;-73
2022/06/26 08:00:28;;;;;;;5.93;3.53;;;;;;;-148.88;74.97;74601.31;4975582;28;20393;-73
2022/06/26 08:02:53;;;;;;;5.05;3.72;;;;;;;-148.88;73.13;74599.28;4974933;28;20026;-72
2022/06/26 08:05:19;;;;;;;4.07;3.30;;;;;;;-148.88;73.37;74591.19;4976966;28;20029;-72
2022/06/26 08:07:44;;;;;;;5.60;3.03;;;;;;;-148.88;72.33;74564.78;4976974;28;20106;-73
2022/06/26 08:10:11;;;;;;;4.32;3.03;;;;;;;-148.88;72.41;74576.97;4975477;28;20399;-72
2022/06/26 08:12:36;;;;;;;4.82;3.38;;;;;;;-148.88;72.37;74583.06;4977040;28;20022;-72
2022/06/26 08:15:03;;;;;;;4.35;3.17;;;;;;;-148.88;72.38;74574.94;4976562;28;20033;-73
2022/06/26 08:17:28;;;;;;;4.28;3.30;;;;;;;-148.88;71.12;74587.13;4977021;28;20030;-72
2022/06/26 08:19:54;;;;;;;4.85;3.08;;;;;;;-148.88;70.02;74587.13;4991905;28;20456;-73
2022/06/26 08:22:19;;;;;;;3.55;3.00;;;;;;;-148.88;70.69;74601.31;4976750;28;20054;-73
2022/06/26 08:24:44;;;;;;;4.00;2.95;;;;;;;-148.88;70.70;74615.53;4976591;28;20066;-73
2022/06/26 08:27:10;;;;;;;4.65;3.20;;;;;;;-148.88;70.96;74611.47;4991313;28;20081;-73
2022/06/26 08:29:36;;;;;;;5.13;3.28;;;;;;;-148.88;69.96;74574.94;4974954;28;20085;-73
2022/06/26 08:32:02;;;;;;;4.13;2.90;;;;;;;-148.88;70.53;74566.81;4976280;28;20479;-73
2022/06/26 08:34:28;;;;;;;3.65;2.65;;;;;;;-148.88;70.69;74572.91;4991698;28;20069;-73
2022/06/26 08:36:54;;;;;;;3.72;2.65;;;;;;;-148.88;70.57;74595.25;4991141;28;20027;-73
2022/06/26 08:39:19;;;;;;;3.50;2.80;;;;;;;-148.88;70.36;74613.50;4976204;28;20142;-72
2022/06/26 08:41:48;;;;;;;3.60;2.83;;;;;;;-148.88;69.90;74623.66;4976095;28;20037;-73
2022/06/26 08:44:14;;;;;;;3.45;2.40;;;;;;;-148.88;70.78;74623.66;4991142;28;20077;-72
2022/06/26 08:46:42;;;;;;;3.50;2.53;;;;;;;-148.88;69.94;74607.41;4991028;28;20157;-72
2022/06/26 08:49:20;;;;;;;3.90;2.50;;;;;;;-148.88;69.64;74576.97;4976191;28;20062;-73
2022/06/26 08:51:47;;;;;;;3.60;2.60;;;;;;;-148.88;69.52;74583.06;4991502;28;20141;-75
2022/06/26 08:54:14;;;;;;;3.42;3.13;;;;;;;-148.88;68.06;74542.44;4976665;28;20031;-75
2022/06/26 08:56:42;;;;;;;4.50;2.90;;;;;;;-148.88;67.36;74550.56;4976148;28;20138;-76
2022/06/26 08:59:09;;;;;;;4.50;2.83;;;;;;;-148.88;67.71;74560.72;4975896;28;20058;-74
2022/06/26 09:01:38;;;;;;;5.22;2.92;;;;;;;-148.88;66.51;74564.78;4975952;28;20033;-75
2022/06/26 09:04:05;;;;;;;3.33;2.30;;;;;;;-148.88;66.48;74538.38;4975910;28;20022;-74
2022/06/26 09:06:32;;;;;;;3.47;2.20;;;;;;;-148.88;68.06;74524.16;4990855;28;20511;-74
2022/06/26 09:08:58;;;;;;;4.22;2.10;;;;;;;-148.88;66.13;74554.63;4975843;28;20027;-75
2022/06/26 09:11:23;;;;;;;3.72;3.03;;;;;;;-148.88;64.98;74532.28;4975767;28;20022;-75
2022/06/26 09:13:52;;;;;;;3.25;2.20;;;;;;;-148.88;64.53;74554.63;4975293;28;20029;-75
2022/06/26 09:16:33;;;;;;;2.97;2.00;;;;;;;-148.88;64.86;74574.94;4975088;28;20030;-74
2022/06/26 09:19:19;;;;;;;3.00;2.40;;;;;;;-148.88;65.95;74558.69;4975757;28;20048;-74
2022/06/26 09:21:45;;;;;;;3.10;2.00;;;;;;;-148.88;64.46;74540.41;4975616;28;20029;-74
2022/06/26 09:24:12;;;;;;;4.75;2.45;;;;;;;-148.88;63.45;74528.22;4975746;28;20507;-74
2022/06/26 09:26:42;;;;;;;4.18;2.60;;;;;;;-148.88;62.13;74558.69;4975780;28;20022;-75
2022/06/26 09:29:17;;;;;;;3.50;2.22;;;;;;;-148.88;62.92;74453.09;4975551;28;20033;-75
2022/06/26 09:31:43;;;;;;;3.28;2.67;;;;;;;-148.88;61.79;74461.22;4984274;28;20023;-75
2022/06/26 09:34:20;;;;;;;3.15;2.80;;;;;;;-148.88;62.54;74473.41;4976658;28;20037;-74
2022/06/26 09:37:01;;;;;;;3.72;3.20;;;;;;;-148.88;63.28;74532.28;4975099;28;20042;-74
2022/06/26 09:39:27;;;;;;;4.82;3.20;;;;;;;-148.88;63.37;74495.75;4975327;28;20396;-74
2022/06/26 09:41:53;;;;;;;6.03;3.38;;;;;;;-148.88;61.01;74493.72;4974980;28;20069;-74
2022/06/26 09:44:19;;;;;;;4.10;3.33;;;;;;;-148.88;62.50;74514.00;4973711;28;20027;-73
2022/06/26 09:46:44;;;;;;;3.75;3.08;;;;;;;-148.88;62.90;74463.25;4974883;28;20540;-74
2022/06/26 09:49:10;;;;;;;3.40;3.10;;;;;;;-148.88;60.74;74369.84;4974788;28;20130;-75
2022/06/26 09:51:36;;;;;;;5.10;3.45;;;;;;;-148.88;61.34;74384.06;4974877;28;20027;-72
2022/06/26 09:54:02;;;;;;;5.22;3.30;;;;;;;-148.88;61.19;74386.09;4973563;28;20139;-72
2022/06/26 09:56:29;;;;;;;4.07;3.60;;;;;;;-148.88;60.82;74426.69;4990149;28;20023;-72
2022/06/26 09:58:56;;;;;;;4.78;3.53;;;;;;;-148.88;60.74;74469.34;4974691;28;20098;-72
2022/06/26 10:06:54;;;;;;;4.15;3.70;;;;;;;-148.88;61.10;74483.56;4974982;28;20085;-72
2022/06/26 10:09:20;;;;;;;5.25;4.15;;;;;;;-148.88;61.21;74491.69;4974581;28;20101;-72
2022/06/26 10:11:46;;;;;;;7.07;4.38;;;;;;;-148.88;61.37;74481.53;4973489;28;20061;-73
2022/06/26 10:14:21;;;;;;;5.03;4.47;;;;;;;-148.88;61.33;74444.97;4974570;28;20022;-72
2022/06/26 10:17:04;;;;;;;6.45;4.28;;;;;;;-148.88;60.33;74440.91;4974452;28;20018;-72
2022/06/26 10:19:51;;;;;;;5.22;4.35;;;;;;;-148.88;61.13;74418.56;4974444;28;20023;-72
2022/06/26 10:22:17;;;;;;;5.85;4.50;;;;;;;-148.88;60.19;74463.25;4974724;28;20054;-72
2022/06/26 10:24:53;;;;;;;5.88;4.40;;;;;;;-148.88;60.49;74449.03;4974377;28;20065;-72
2022/06/26 10:27:26;;;;;;;4.75;4.32;;;;;;;-148.88;59.05;74444.97;4972888;28;20033;-73
2022/06/26 10:30:03;;;;;;;5.28;4.78;;;;;;;-148.88;60.19;74455.13;4974621;28;20031;-74
2022/06/26 10:32:29;;;;;;;5.80;5.20;;;;;;;-148.88;61.26;74493.72;4973161;28;20031;-76
2022/06/26 10:34:56;;;;;;;7.15;5.38;;;;;;;-148.88;62.27;74522.13;4973245;28;20396;-76
2022/06/26 10:37:22;;;;;;;6.88;5.00;;;;;;;-148.88;62.42;74511.97;4974379;28;20547;-76
2022/06/26 10:39:50;;;;;;;5.15;4.65;;;;;;;-148.88;62.76;74471.38;4973058;28;20023;-75
2022/06/26 10:45:35;;;;;;;6.80;5.75;;;;;;;-148.88;57.36;74382.03;4974358;28;20034;-74
2022/06/26 10:48:06;;;;;;;8.75;6.05;;;;;;;-148.88;55.68;74371.88;4974430;28;20055;-74
2022/06/26 10:50:41;;;;;;;7.22;6.53;;;;;;;-148.88;55.60;74327.19;4974315;28;20032;-74
2022/06/26 10:53:36;;;;;;;6.50;5.57;;;;;;;-148.88;54.85;74302.84;4974221;28;20037;-75
2022/06/26 10:56:05;;;;;;;8.13;5.55;;;;;;;-148.88;53.46;74288.63;4961743;28;20038;-74
2022/06/26 10:58:32;;;;;;;7.10;6.40;;;;;;;-148.88;53.54;74274.41;4989216;28;20037;-74
2022/06/26 11:01:00;;;;;;;7.70;6.82;;;;;;;-148.88;54.73;74313.00;4972806;28;20053;-73
2022/06/26 11:03:27;;;;;;;7.40;6.70;;;;;;;-148.88;54.92;74288.63;4974469;28;20110;-73
2022/06/26 11:05:53;;;;;;;8.63;7.20;;;;;;;-148.88;54.37;74296.75;4973800;28;20388;-73
2022/06/26 11:08:30;;;;;;;8.30;7.35;;;;;;;-148.88;55.98;74367.81;4988914;28;20460;-74
2022/06/26 11:11:17;;;;;;;8.07;7.28;;;;;;;-148.88;54.75;74369.84;4989026;28;20027;-73
2022/06/26 11:13:55;;;;;;;7.97;7.18;;;;;;;-148.88;55.71;74331.25;4974133;28;20110;-73
2022/06/26 11:16:38;;;;;;;9.32;8.32;;;;;;;-148.88;54.40;74355.63;4973889;28;20038;-73
2022/06/26 11:19:05;;;;;;;9.27;7.75;;;;;;;-148.88;55.69;74351.56;4988948;28;20537;-73
2022/06/26 11:21:31;;;;;;;9.40;8.40;;;;;;;-148.88;54.03;74347.50;4988902;28;20098;-73
2022/06/26 11:23:58;;;;;;;7.78;6.97;;;;;;;-148.88;54.48;74282.53;4973986;28;20579;-73
2022/06/26 11:26:23;;;;;;;9.45;8.43;;;;;;;-148.88;52.36;74229.75;4974881;28;20029;-73
2022/06/26 11:28:58;;;;;;;9.20;8.05;;;;;;;-148.88;51.42;74195.22;4973979;28;20113;-74
2022/06/26 11:31:26;;;;;;;8.90;8.00;;;;;;;-148.88;51.48;74233.81;4972739;28;20141;-74
2022/06/26 11:33:51;;;;;;;9.60;8.68;;;;;;;-148.88;52.77;74209.44;4974112;28;20058;-74
2022/06/26 11:36:17;;;;;;;8.70;7.88;;;;;;;-148.88;51.07;74191.16;4973663;28;20031;-73
2022/06/26 11:38:52;;;;;;;9.45;8.40;;;;;;;-148.88;49.56;74172.88;4990826;28;20499;-73